Time;durP1;ratioP1;P1;durP2;ratioP2;P2;SDS_P1;SDS_P2;PMS_P1;PMS_P2;Temp;Humidity;BMP_temperature;BMP_pressure;BME280_temperature;BME280_humidity;BME280_pressure;Samples;Min_cycle;Max_cycle;Signal;HPM_P1;HPM_P2
2023/01/14 00:02:00;;;;;;;490.20;274.80;;;;;;;-142.25;100.00;58004.16;4775697;29;20090;-70
2023/01/14 00:08:30;;;;;;;484.10;262.97;;;;;;;-142.25;100.00;58004.16;4773064;30;20059;-70
2023/01/14 00:12:05;;;;;;;;;;;;;;;;;;;;;
2023/01/14 00:18:53;;;;;;;483.13;260.43;;;;;;;-142.25;100.00;58004.16;4783964;29;20093;-69
2023/01/14 00:21:28;;;;;;;484.63;257.63;;;;;;;-142.25;100.00;58004.16;4790795;29;20118;-70
2023/01/14 00:24:37;;;;;;;483.95;261.40;;;;;;;-142.25;100.00;58004.16;4870395;29;20076;-71
2023/01/14 00:27:03;;;;;;;483.33;260.43;;;;;;;-142.25;100.00;58004.16;4905006;29;20082;-70
2023/01/14 00:29:31;;;;;;;487.93;256.07;;;;;;;-142.25;100.00;58004.16;4895469;29;20079;-70
2023/01/14 00:31:59;;;;;;;487.93;266.70;;;;;;;-142.25;100.00;58004.16;4901952;29;20063;-70
2023/01/14 00:34:27;;;;;;;489.70;265.27;;;;;;;-142.25;100.00;58004.16;4902150;29;20060;-70
2023/01/14 00:36:53;;;;;;;488.97;266.57;;;;;;;-142.25;100.00;58004.16;4919136;29;20092;-69
2023/01/14 00:39:20;;;;;;;488.37;269.90;;;;;;;-142.25;100.00;58004.16;4891116;29;20103;-70
2023/01/14 00:41:46;;;;;;;486.90;268.63;;;;;;;-142.25;100.00;58004.16;4906114;29;20040;-70
2023/01/14 00:44:13;;;;;;;486.00;266.87;;;;;;;-142.25;100.00;58004.16;4907830;29;20543;-70
2023/01/14 00:46:40;;;;;;;491.57;280.47;;;;;;;-142.25;100.00;58004.16;4895317;29;20835;-69
2023/01/14 00:49:17;;;;;;;491.70;280.47;;;;;;;-142.25;100.00;58004.16;4910681;29;20123;-70
2023/01/14 00:51:45;;;;;;;490.10;277.00;;;;;;;-142.25;100.00;58004.16;4892759;29;20292;-70
2023/01/14 00:54:11;;;;;;;491.83;276.27;;;;;;;-142.25;100.00;58004.16;4906337;29;20052;-70
2023/01/14 00:56:40;;;;;;;492.17;278.87;;;;;;;-142.25;100.00;58004.16;4923471;29;20662;-70
2023/01/14 00:59:18;;;;;;;493.93;279.90;;;;;;;-142.25;100.00;58004.16;4929209;29;20054;-70
2023/01/14 01:01:44;;;;;;;367.52;209.05;;;;;;;-142.25;100.00;58004.16;4915486;29;20044;-70
2023/01/14 01:04:09;;;;;;;496.07;284.83;;;;;;;-142.25;100.00;58004.16;4983800;28;20064;-70
2023/01/14 01:06:35;;;;;;;496.73;292.50;;;;;;;-142.25;100.00;58004.16;5002541;28;20077;-70
2023/01/14 01:09:01;;;;;;;494.97;287.07;;;;;;;-142.25;100.00;58004.16;5004323;28;20049;-70
2023/01/14 01:11:27;;;;;;;492.60;285.57;;;;;;;-142.25;100.00;58004.16;5004905;28;20426;-70
2023/01/14 01:13:54;;;;;;;490.60;284.03;;;;;;;-142.25;100.00;58004.16;5010442;28;20107;-70
2023/01/14 01:16:23;;;;;;;490.10;284.07;;;;;;;-142.25;100.00;58004.16;4991824;28;20121;-70
2023/01/14 01:18:51;;;;;;;490.43;286.77;;;;;;;-142.25;100.00;58004.16;5019961;28;20056;-70
2023/01/14 01:21:18;;;;;;;492.00;290.40;;;;;;;-142.25;100.00;58004.16;5040707;28;20522;-70
2023/01/14 01:23:46;;;;;;;490.50;285.80;;;;;;;-142.25;100.00;58004.16;5026443;28;20053;-70
2023/01/14 01:26:15;;;;;;;490.93;284.33;;;;;;;-142.25;100.00;58004.16;5046093;28;20045;-70
2023/01/14 01:28:41;;;;;;;489.40;279.97;;;;;;;-142.25;100.00;58004.16;5027344;28;20400;-70
2023/01/14 01:31:10;;;;;;;482.83;264.93;;;;;;;-142.25;100.00;58004.16;5045343;28;20046;-70
2023/01/14 01:33:37;;;;;;;486.73;272.67;;;;;;;-142.25;100.00;58004.16;5027779;28;20164;-70
2023/01/14 01:36:05;;;;;;;490.70;277.03;;;;;;;-142.25;100.00;58004.16;5045156;28;20535;-70
2023/01/14 01:38:32;;;;;;;489.17;278.17;;;;;;;-142.25;100.00;58004.16;5047201;28;20056;-70
2023/01/14 01:40:58;;;;;;;493.63;285.03;;;;;;;-142.25;100.00;58004.16;5025999;28;20368;-70
2023/01/14 01:43:28;;;;;;;469.50;236.27;;;;;;;-142.25;100.00;58004.16;5024432;28;20482;-72
2023/01/14 01:45:56;;;;;;;473.57;246.03;;;;;;;-142.25;100.00;58004.16;5042726;28;20487;-70
2023/01/14 01:48:40;;;;;;;475.03;249.03;;;;;;;-142.25;100.00;58004.16;5048012;28;20522;-71
2023/01/14 01:51:14;;;;;;;475.73;246.40;;;;;;;-142.25;100.00;58004.16;5043271;28;20038;-70
2023/01/14 01:53:44;;;;;;;475.00;250.02;;;;;;;-142.25;100.00;58004.16;5043513;28;20141;-70
2023/01/14 01:56:15;;;;;;;481.77;264.67;;;;;;;-142.25;100.00;58004.16;5043984;28;20045;-70
2023/01/14 01:58:42;;;;;;;472.60;245.73;;;;;;;-142.25;100.00;58004.16;5049353;28;20042;-70
2023/01/14 02:01:08;;;;;;;450.50;211.20;;;;;;;-142.25;100.00;58004.16;5049765;28;20069;-69
2023/01/14 02:03:41;;;;;;;473.73;252.50;;;;;;;-142.25;100.00;58004.16;5040677;28;20056;-71
2023/01/14 02:06:08;;;;;;;470.80;243.20;;;;;;;-142.25;100.00;58004.16;5029663;28;20048;-73
2023/01/14 02:08:38;;;;;;;449.30;201.30;;;;;;;-142.25;100.00;58004.16;5018695;28;20349;-70
2023/01/14 02:11:28;;;;;;;420.93;184.83;;;;;;;-142.25;100.00;58004.16;5046071;28;20076;-70
2023/01/14 02:14:13;;;;;;;389.27;195.23;;;;;;;-142.25;100.00;58004.16;5044428;28;20041;-70
2023/01/14 02:17:12;;;;;;;451.70;238.17;;;;;;;-142.25;100.00;58004.16;5040087;28;20061;-69
2023/01/14 02:19:55;;;;;;;433.67;182.07;;;;;;;-142.25;100.00;58004.16;5033216;28;20056;-70
2023/01/14 02:22:33;;;;;;;449.70;204.23;;;;;;;-142.25;100.00;58004.16;5044299;28;20060;-71
2023/01/14 02:25:27;;;;;;;458.53;215.90;;;;;;;-142.25;100.00;58004.16;5028898;28;20285;-69
2023/01/14 02:28:08;;;;;;;463.20;222.43;;;;;;;-142.25;100.00;58004.16;5023357;28;20057;-68
2023/01/14 02:30:42;;;;;;;467.80;232.17;;;;;;;-142.25;100.00;58004.16;5044695;28;20040;-68
2023/01/14 02:33:21;;;;;;;471.42;258.50;;;;;;;-142.25;100.00;58004.16;5041539;28;20053;-68
2023/01/14 02:35:55;;;;;;;478.77;265.70;;;;;;;-142.25;100.00;58004.16;5015347;28;20075;-69
2023/01/14 02:38:44;;;;;;;473.17;251.77;;;;;;;-142.25;100.00;58004.16;5028490;28;20549;-70
2023/01/14 02:41:18;;;;;;;480.53;258.67;;;;;;;-142.25;100.00;58004.16;5006525;28;20210;-69
2023/01/14 02:44:10;;;;;;;483.13;262.90;;;;;;;-142.25;100.00;58004.16;5040479;28;20037;-70
2023/01/14 02:47:03;;;;;;;485.00;264.83;;;;;;;-142.25;100.00;58004.16;5039388;28;20068;-70
2023/01/14 02:49:33;;;;;;;483.17;263.83;;;;;;;-142.25;100.00;58004.16;5022792;28;20048;-69
2023/01/14 02:51:59;;;;;;;485.03;265.13;;;;;;;-142.25;100.00;58004.16;5013613;28;20103;-70
2023/01/14 02:54:27;;;;;;;391.07;245.80;;;;;;;-142.25;100.00;58004.16;5030257;28;20049;-70
2023/01/14 02:56:56;;;;;;;355.87;256.50;;;;;;;-142.25;100.00;58004.16;5030854;28;20522;-69
2023/01/14 02:59:36;;;;;;;344.00;253.60;;;;;;;-142.25;100.00;58004.16;5029702;28;20037;-69
2023/01/14 03:02:26;;;;;;;308.30;244.87;;;;;;;-142.25;100.00;58004.16;5027693;28;20064;-70
2023/01/14 03:05:04;;;;;;;287.33;233.23;;;;;;;-142.25;100.00;58004.16;5033599;28;20687;-70
2023/01/14 03:08:03;;;;;;;386.77;262.47;;;;;;;-142.25;100.00;58004.16;5029045;28;20036;-69
2023/01/14 03:10:41;;;;;;;269.07;240.07;;;;;;;-142.25;100.00;58004.16;5036657;28;20033;-70
2023/01/14 03:13:25;;;;;;;259.27;231.27;;;;;;;-142.25;100.00;58004.16;5041904;28;20126;-69
2023/01/14 03:16:03;;;;;;;331.33;245.47;;;;;;;-142.25;100.00;58004.16;5040945;28;20043;-69
2023/01/14 03:18:48;;;;;;;342.17;244.27;;;;;;;-142.25;100.00;58004.16;5042013;28;20467;-71
2023/01/14 03:21:19;;;;;;;267.67;220.80;;;;;;;-142.25;100.00;58004.16;5012911;28;20033;-69
2023/01/14 03:24:16;;;;;;;306.57;234.50;;;;;;;-142.25;100.00;58004.16;5023287;28;20308;-69
2023/01/14 03:26:46;;;;;;;232.43;212.10;;;;;;;-142.25;100.00;58004.16;5026386;28;20053;-69
2023/01/14 03:29:19;;;;;;;254.37;226.80;;;;;;;-142.25;100.00;58004.16;5026918;28;20136;-70
2023/01/14 03:31:53;;;;;;;248.20;224.90;;;;;;;-142.25;100.00;58004.16;5041442;28;20434;-69
2023/01/14 03:34:25;;;;;;;251.83;224.33;;;;;;;-142.25;100.00;58004.16;5022583;28;20052;-70
2023/01/14 03:36:53;;;;;;;262.73;234.43;;;;;;;-142.25;100.00;58004.16;5042900;28;20536;-69
2023/01/14 03:39:23;;;;;;;328.90;239.37;;;;;;;-142.25;100.00;58004.16;5042308;28;20044;-71
2023/01/14 03:44:52;;;;;;;316.53;249.37;;;;;;;-142.25;100.00;58004.16;5040610;28;20044;-71
2023/01/14 03:47:19;;;;;;;313.53;242.27;;;;;;;-142.25;100.00;58004.16;5041724;28;20044;-71
2023/01/14 03:49:44;;;;;;;334.53;246.47;;;;;;;-142.25;100.00;58004.16;5042483;28;20129;-70
2023/01/14 03:52:26;;;;;;;389.43;272.83;;;;;;;-142.25;100.00;58004.16;5041374;28;20596;-70
2023/01/14 03:55:03;;;;;;;395.77;250.20;;;;;;;-142.25;100.00;58004.16;5043405;28;20055;-71
2023/01/14 03:57:32;;;;;;;410.70;266.27;;;;;;;-142.25;100.00;58004.16;5036256;28;20167;-71
2023/01/14 04:00:02;;;;;;;327.80;234.20;;;;;;;-142.25;100.00;58004.16;5038643;28;20519;-70
2023/01/14 04:02:39;;;;;;;399.47;246.17;;;;;;;-142.25;100.00;58004.16;5042866;28;20128;-71
2023/01/14 04:05:05;;;;;;;397.40;245.10;;;;;;;-142.25;100.00;58004.16;5042132;28;20387;-70
2023/01/14 04:07:31;;;;;;;390.47;243.03;;;;;;;-142.25;100.00;58004.16;5046352;28;20087;-69
2023/01/14 04:09:57;;;;;;;375.13;240.63;;;;;;;-142.25;100.00;58004.16;5045125;28;20049;-70
2023/01/14 04:12:23;;;;;;;352.47;234.70;;;;;;;-142.25;100.00;58004.16;5016693;28;20044;-70
2023/01/14 04:17:37;;;;;;;352.43;243.47;;;;;;;-142.25;100.00;58004.16;5042492;28;20967;-70
2023/01/14 04:20:07;;;;;;;367.07;269.30;;;;;;;-142.25;100.00;58004.16;5048153;28;20098;-70
2023/01/14 04:22:32;;;;;;;221.73;201.77;;;;;;;-142.25;100.00;58004.16;5031372;28;20077;-70
2023/01/14 04:24:58;;;;;;;69.83;66.00;;;;;;;-142.25;100.00;58004.16;5045622;28;20052;-70
2023/01/14 04:27:24;;;;;;;40.23;38.30;;;;;;;-142.25;100.00;58004.16;5027729;28;20960;-70
2023/01/14 04:29:50;;;;;;;65.07;61.53;;;;;;;-142.25;100.00;58004.16;5044706;28;20033;-70
2023/01/14 04:32:15;;;;;;;129.90;121.63;;;;;;;-142.25;100.00;58004.16;5047091;28;20050;-70
2023/01/14 04:34:41;;;;;;;122.00;114.17;;;;;;;-142.25;100.00;58004.16;5029234;28;20052;-70
2023/01/14 04:37:09;;;;;;;134.07;125.30;;;;;;;-142.25;100.00;58004.16;5043058;28;20198;-70
2023/01/14 04:39:35;;;;;;;188.47;174.03;;;;;;;-142.25;100.00;58004.16;5043942;28;20114;-70
2023/01/14 04:44:47;;;;;;;244.73;219.37;;;;;;;-142.25;100.00;58004.16;5044451;28;20048;-71
2023/01/14 04:47:14;;;;;;;295.27;226.63;;;;;;;-142.25;100.00;58004.16;5032766;28;20366;-71
2023/01/14 04:49:39;;;;;;;314.67;222.30;;;;;;;-142.25;100.00;58004.16;5046032;28;20037;-70
2023/01/14 04:52:05;;;;;;;331.90;229.30;;;;;;;-142.25;100.00;58004.16;5010420;28;20049;-70
2023/01/14 04:54:30;;;;;;;327.20;219.13;;;;;;;-142.25;100.00;58004.16;5026526;28;20106;-69
2023/01/14 04:56:56;;;;;;;379.03;237.83;;;;;;;-142.25;100.00;58004.16;5048408;28;20080;-70
2023/01/14 04:59:22;;;;;;;349.30;230.50;;;;;;;-142.25;100.00;58004.16;5044493;28;20139;-70
2023/01/14 05:01:47;;;;;;;313.60;228.40;;;;;;;-142.25;100.00;58004.16;5046450;28;20037;-69
2023/01/14 05:04:13;;;;;;;312.10;235.37;;;;;;;-142.25;100.00;58004.16;5045965;28;20667;-69
2023/01/14 05:06:39;;;;;;;372.53;251.40;;;;;;;-142.25;100.00;58004.16;5025673;28;20040;-69
2023/01/14 05:09:05;;;;;;;383.57;239.37;;;;;;;-142.25;100.00;58004.16;5043326;28;20087;-69
2023/01/14 05:11:30;;;;;;;367.87;238.13;;;;;;;-142.25;100.00;58004.16;5044390;28;20032;-71
2023/01/14 05:13:56;;;;;;;353.77;235.93;;;;;;;-142.25;100.00;58004.16;5027740;28;20053;-70
2023/01/14 05:16:23;;;;;;;335.93;238.80;;;;;;;-142.25;100.00;58004.16;5038466;28;20059;-69
2023/01/14 05:18:50;;;;;;;325.50;230.97;;;;;;;-142.25;100.00;58004.16;5010101;28;20053;-70
2023/01/14 05:21:17;;;;;;;316.87;225.70;;;;;;;-142.25;100.00;58004.16;5018599;28;20076;-69
2023/01/14 05:23:43;;;;;;;315.03;241.07;;;;;;;-142.25;100.00;58004.16;5024996;28;20056;-70
2023/01/14 05:26:09;;;;;;;263.47;224.20;;;;;;;-142.25;100.00;58004.16;5030091;28;20419;-69
2023/01/14 05:28:36;;;;;;;248.23;220.87;;;;;;;-142.25;100.00;58004.16;5024742;28;20069;-69
2023/01/14 05:31:01;;;;;;;242.60;211.07;;;;;;;-142.25;100.00;58004.16;5023598;28;20575;-70
2023/01/14 05:33:27;;;;;;;254.60;221.23;;;;;;;-142.25;100.00;58004.16;5023212;28;20055;-70
2023/01/14 05:36:00;;;;;;;249.33;222.33;;;;;;;-142.25;100.00;58004.16;5024398;28;20494;-70
2023/01/14 05:38:27;;;;;;;250.77;223.47;;;;;;;-142.25;100.00;58004.16;5022026;28;20160;-70
2023/01/14 05:40:52;;;;;;;306.30;237.80;;;;;;;-142.25;100.00;58004.16;5015004;28;20038;-72
2023/01/14 05:46:12;;;;;;;292.65;232.63;;;;;;;-142.25;100.00;58004.16;5025081;28;20567;-70
2023/01/14 05:48:38;;;;;;;285.08;227.38;;;;;;;-142.25;100.00;58004.16;5026716;28;20048;-70
2023/01/14 05:51:06;;;;;;;215.00;194.97;;;;;;;-142.25;100.00;58004.16;5024331;28;20420;-69
2023/01/14 05:53:32;;;;;;;227.20;206.13;;;;;;;-142.25;100.00;58004.16;5022547;28;20435;-70
2023/01/14 05:55:59;;;;;;;216.67;195.90;;;;;;;-142.25;100.00;58004.16;5023586;28;20041;-70
2023/01/14 05:58:25;;;;;;;244.77;215.30;;;;;;;-142.25;100.00;58004.16;5026705;28;20044;-69
2023/01/14 06:06:25;;;;;;;239.63;211.77;;;;;;;-142.25;100.00;58004.16;5030086;28;20045;-70
2023/01/14 06:08:57;;;;;;;244.20;216.60;;;;;;;-142.25;100.00;58004.16;5025422;28;20048;-69
2023/01/14 06:11:24;;;;;;;261.37;228.27;;;;;;;-142.25;100.00;58004.16;5020594;28;20055;-70
2023/01/14 06:13:56;;;;;;;264.67;225.33;;;;;;;-142.25;100.00;58004.16;5024061;28;20041;-70
2023/01/14 06:16:23;;;;;;;262.50;221.57;;;;;;;-142.25;100.00;58004.16;5023410;28;20440;-69
2023/01/14 06:18:49;;;;;;;252.73;213.00;;;;;;;-142.25;100.00;58004.16;5038022;28;20130;-69
2023/01/14 06:21:20;;;;;;;241.03;205.77;;;;;;;-142.25;100.00;58004.16;5042735;28;20086;-70
2023/01/14 06:23:47;;;;;;;241.23;209.73;;;;;;;-142.25;100.00;58004.16;5025197;28;20040;-70
2023/01/14 06:26:18;;;;;;;216.93;193.53;;;;;;;-142.25;100.00;58004.16;5043013;28;20056;-71
2023/01/14 06:28:44;;;;;;;215.90;194.23;;;;;;;-142.25;100.00;58004.16;5042405;28;20483;-70
2023/01/14 06:31:16;;;;;;;210.43;190.90;;;;;;;-142.25;100.00;58004.16;5044446;28;20120;-70
2023/01/14 06:33:42;;;;;;;202.70;183.73;;;;;;;-142.25;100.00;58004.16;5043057;28;20059;-68
2023/01/14 06:36:09;;;;;;;194.47;176.30;;;;;;;-142.25;100.00;58004.16;5025707;28;20041;-69
2023/01/14 06:38:36;;;;;;;206.10;187.20;;;;;;;-142.25;100.00;58004.16;5027963;28;20040;-71
2023/01/14 06:41:04;;;;;;;199.90;180.90;;;;;;;-142.25;100.00;58004.16;5027055;28;20064;-70
2023/01/14 06:43:30;;;;;;;190.93;173.53;;;;;;;-142.25;100.00;58004.16;5038991;28;20225;-70
2023/01/14 06:45:56;;;;;;;186.50;169.70;;;;;;;-142.25;100.00;58004.16;5037163;28;20049;-70
2023/01/14 06:48:23;;;;;;;186.90;170.87;;;;;;;-142.25;100.00;58004.16;5042134;28;20115;-70
2023/01/14 06:50:49;;;;;;;180.67;164.30;;;;;;;-142.25;100.00;58004.16;5041689;28;20059;-71
2023/01/14 06:53:15;;;;;;;183.80;168.43;;;;;;;-142.25;100.00;58004.16;5037941;28;20041;-69
2023/01/14 06:55:40;;;;;;;167.40;154.40;;;;;;;-142.25;100.00;58004.16;5039732;28;20207;-71
2023/01/14 06:58:06;;;;;;;174.47;160.30;;;;;;;-142.25;100.00;58004.16;5038857;28;20028;-71
2023/01/14 07:00:32;;;;;;;158.50;145.93;;;;;;;-142.25;100.00;58004.16;5042187;28;20421;-70
2023/01/14 07:02:57;;;;;;;143.17;132.20;;;;;;;-142.25;100.00;58004.16;5040602;28;20047;-71
2023/01/14 07:05:23;;;;;;;161.53;149.37;;;;;;;-142.25;100.00;58004.16;5038613;28;20050;-70
2023/01/14 07:07:49;;;;;;;148.30;137.00;;;;;;;-142.25;100.00;58004.16;5036173;28;20046;-70
2023/01/14 07:10:16;;;;;;;120.07;111.60;;;;;;;-142.25;100.00;58004.16;5038872;28;20083;-70
2023/01/14 07:12:46;;;;;;;106.83;99.87;;;;;;;-142.25;100.00;58004.16;5036278;28;20068;-69
2023/01/14 07:15:12;;;;;;;111.23;104.00;;;;;;;-142.25;100.00;58004.16;5039992;28;20543;-70
2023/01/14 07:17:38;;;;;;;93.83;88.23;;;;;;;-142.25;100.00;58004.16;5044091;28;20069;-69
2023/01/14 07:20:06;;;;;;;73.63;69.63;;;;;;;-142.25;100.00;58004.16;5042762;28;20403;-69
2023/01/14 07:22:31;;;;;;;58.37;54.87;;;;;;;-142.25;100.00;58004.16;5025930;28;20049;-70
2023/01/14 07:24:57;;;;;;;58.10;55.13;;;;;;;-142.25;100.00;58004.16;5037584;28;20029;-67
2023/01/14 07:27:22;;;;;;;33.77;32.03;;;;;;;-142.25;100.00;58004.16;5039291;28;20041;-70
2023/01/14 07:29:48;;;;;;;15.50;14.53;;;;;;;-142.25;100.00;58004.16;5042696;28;20048;-65
2023/01/14 07:32:13;;;;;;;15.40;14.00;;;;;;;-142.25;100.00;58004.16;5039681;28;20034;-72
2023/01/14 07:34:39;;;;;;;9.47;7.20;;;;;;;-142.25;100.00;58004.16;5036940;28;20414;-70
2023/01/14 07:37:05;;;;;;;4.67;4.20;;;;;;;-142.25;100.00;58004.16;5043891;28;20041;-69
2023/01/14 07:39:30;;;;;;;10.73;4.20;;;;;;;-142.25;100.00;58004.16;5033421;28;20045;-70
2023/01/14 07:41:56;;;;;;;5.57;4.27;;;;;;;-142.25;100.00;58004.16;5045950;28;20042;-70
2023/01/14 07:44:24;;;;;;;5.27;4.30;;;;;;;-142.25;100.00;58004.16;5041930;28;20927;-70
2023/01/14 07:46:54;;;;;;;3.10;2.47;;;;;;;-142.25;100.00;58004.16;5026513;28;20128;-70
2023/01/14 07:49:22;;;;;;;7.67;3.80;;;;;;;-142.25;100.00;58004.16;5040224;28;20040;-71
2023/01/14 07:51:49;;;;;;;7.57;4.50;;;;;;;-142.25;100.00;58004.16;5033579;28;20132;-71
2023/01/14 07:54:15;;;;;;;3.83;2.57;;;;;;;-142.25;100.00;58004.16;5035073;28;20036;-71
2023/01/14 07:56:41;;;;;;;4.20;2.47;;;;;;;-142.25;100.00;58004.16;5046517;28;20047;-70
2023/01/14 07:59:08;;;;;;;9.43;3.30;;;;;;;-142.25;100.00;58004.16;5042627;28;20565;-70
2023/01/14 08:01:33;;;;;;;5.70;1.97;;;;;;;-142.25;100.00;58004.16;5039276;28;20041;-70
2023/01/14 08:03:59;;;;;;;7.83;2.60;;;;;;;-142.25;100.00;58004.16;5029192;28;20045;-71
2023/01/14 08:06:25;;;;;;;10.47;5.17;;;;;;;-142.25;100.00;58004.16;5027398;28;20048;-70
2023/01/14 08:08:51;;;;;;;11.87;4.37;;;;;;;-142.25;100.00;58004.16;5039706;28;20075;-70
2023/01/14 08:11:17;;;;;;;9.43;4.57;;;;;;;-142.25;100.00;58004.16;5044869;28;20048;-71
2023/01/14 08:13:43;;;;;;;9.63;4.10;;;;;;;-142.25;100.00;58004.16;5040071;28;20078;-70
2023/01/14 08:16:09;;;;;;;8.23;4.23;;;;;;;-142.25;100.00;58004.16;5046636;28;20064;-69
2023/01/14 08:18:38;;;;;;;7.77;4.33;;;;;;;-142.25;100.00;58004.16;5046329;28;20048;-71
2023/01/14 08:21:06;;;;;;;8.23;3.90;;;;;;;-142.25;100.00;58004.16;5047366;28;20045;-71
2023/01/14 08:23:33;;;;;;;5.07;2.63;;;;;;;-142.25;100.00;58004.16;5042175;28;20342;-71
2023/01/14 08:26:02;;;;;;;5.60;2.40;;;;;;;-142.25;100.00;58004.16;5043065;28;20541;-71
2023/01/14 08:28:28;;;;;;;2.77;1.80;;;;;;;-142.25;100.00;58004.16;5041878;28;20052;-71
2023/01/14 08:31:05;;;;;;;3.13;1.80;;;;;;;-142.25;100.00;58004.16;5043722;28;20487;-73
2023/01/14 08:33:31;;;;;;;6.43;2.20;;;;;;;-142.25;100.00;58004.16;5043167;28;20045;-69
2023/01/14 08:36:05;;;;;;;5.57;1.95;;;;;;;-142.25;100.00;58004.16;5045574;28;20128;-68
2023/01/14 08:38:34;;;;;;;3.23;2.57;;;;;;;-142.25;100.00;58004.16;5039999;28;20047;-70
2023/01/14 08:41:11;;;;;;;2.07;1.37;;;;;;;-142.25;100.00;58004.16;5047290;28;20049;-71
2023/01/14 08:43:38;;;;;;;3.07;1.60;;;;;;;-142.25;100.00;58004.16;5050744;28;20415;-71
2023/01/14 08:46:05;;;;;;;2.13;1.50;;;;;;;-142.25;100.00;58004.16;5047347;28;20032;-70
2023/01/14 08:48:31;;;;;;;2.87;2.00;;;;;;;-142.25;100.00;58004.16;5016526;28;20037;-71
2023/01/14 08:51:01;;;;;;;4.40;1.37;;;;;;;-142.25;100.00;58004.16;5044208;28;20044;-70
2023/01/14 08:53:31;;;;;;;2.70;1.43;;;;;;;-142.25;100.00;58004.16;5044536;28;20045;-68
2023/01/14 08:55:59;;;;;;;1.10;1.00;;;;;;;-142.25;100.00;58004.16;5045600;28;20091;-71
2023/01/14 08:58:26;;;;;;;2.23;1.27;;;;;;;-142.25;100.00;58004.16;5041714;28;20212;-69
2023/01/14 09:01:00;;;;;;;5.53;1.60;;;;;;;-142.25;100.00;58004.16;5040094;28;20499;-69
2023/01/14 09:03:29;;;;;;;5.90;1.70;;;;;;;-142.25;100.00;58004.16;5043310;28;20060;-70
2023/01/14 09:06:03;;;;;;;3.63;1.63;;;;;;;-142.25;100.00;58004.16;5038983;28;20042;-71
2023/01/14 09:17:09;;;;;;;3.07;1.80;;;;;;;-142.25;100.00;58004.16;4963666;28;20240;-71
2023/01/14 09:20:03;;;;;;;3.13;1.20;;;;;;;-142.25;100.00;58004.16;4964249;28;20065;-70
2023/01/14 09:22:30;;;;;;;5.40;1.50;;;;;;;-142.25;100.00;58004.16;4959578;28;20062;-70
2023/01/14 09:24:56;;;;;;;3.73;1.33;;;;;;;-142.25;100.00;58004.16;4965280;28;20102;-71
2023/01/14 09:27:22;;;;;;;5.75;1.20;;;;;;;-142.25;100.00;58004.16;4965041;28;20051;-70
2023/01/14 09:29:48;;;;;;;5.93;1.77;;;;;;;-142.25;100.00;58004.16;4965244;28;20517;-69
2023/01/14 09:32:16;;;;;;;3.77;1.30;;;;;;;-142.25;100.00;58004.16;4965147;28;20631;-69
2023/01/14 09:34:47;;;;;;;3.73;1.30;;;;;;;-142.25;100.00;58004.16;4961062;28;20455;-70
2023/01/14 09:37:14;;;;;;;2.50;1.40;;;;;;;-142.25;100.00;58004.16;4958706;28;20073;-70
2023/01/14 09:39:40;;;;;;;8.33;1.67;;;;;;;-142.25;100.00;58004.16;4961337;28;20065;-70
2023/01/14 09:42:15;;;;;;;2.63;1.20;;;;;;;-142.25;100.00;58004.16;4960809;28;20066;-71
2023/01/14 09:44:42;;;;;;;5.65;1.20;;;;;;;-142.25;100.00;58004.16;4958904;28;20565;-71
2023/01/14 09:47:12;;;;;;;2.40;1.33;;;;;;;-142.25;100.00;58004.16;4964424;28;20050;-72
2023/01/14 09:49:39;;;;;;;3.07;1.33;;;;;;;-142.25;100.00;58004.16;5023906;28;20159;-72
2023/01/14 09:52:23;;;;;;;1.97;1.20;;;;;;;-142.25;100.00;58004.16;5024491;28;20508;-70
2023/01/14 09:55:10;;;;;;;2.97;1.45;;;;;;;-142.25;100.00;58004.16;5026656;28;20045;-71
2023/01/14 09:57:57;;;;;;;7.27;1.20;;;;;;;-142.25;100.00;58004.16;5022377;28;20080;-71
2023/01/14 10:00:29;;;;;;;3.70;1.40;;;;;;;-142.25;100.00;58004.16;5024831;28;20077;-70
2023/01/14 10:03:15;;;;;;;7.38;1.35;;;;;;;-142.25;100.00;58004.16;5011460;28;20045;-71
2023/01/14 10:05:53;;;;;;;3.85;1.40;;;;;;;-142.25;100.00;58004.16;5021772;28;20041;-72
2023/01/14 10:08:22;;;;;;;2.75;1.23;;;;;;;-142.25;100.00;58004.16;5020689;28;20042;-71
2023/01/14 10:10:48;;;;;;;3.22;1.60;;;;;;;-142.25;100.00;58004.16;5024800;28;20080;-67
2023/01/14 10:13:28;;;;;;;1.30;1.20;;;;;;;-142.25;100.00;58004.16;5020749;28;20380;-65
2023/01/14 10:15:58;;;;;;;3.45;1.65;;;;;;;-142.25;100.00;58004.16;5012135;28;20037;-66
2023/01/14 10:18:42;;;;;;;3.40;1.55;;;;;;;-142.25;100.00;58004.16;5026303;28;20207;-66
2023/01/14 10:21:19;;;;;;;8.05;1.33;;;;;;;-142.25;100.00;58004.16;5044308;28;20041;-65
2023/01/14 10:23:45;;;;;;;2.95;1.70;;;;;;;-142.25;100.00;58004.16;5043011;28;20037;-64
2023/01/14 10:26:18;;;;;;;2.67;1.65;;;;;;;-142.25;100.00;58004.16;5041914;28;20899;-65
2023/01/14 10:28:48;;;;;;;2.58;1.10;;;;;;;-142.25;100.00;58004.16;5043834;28;20063;-65
2023/01/14 10:31:22;;;;;;;2.45;1.33;;;;;;;-142.25;100.00;58004.16;5045447;28;20037;-65
2023/01/14 10:33:48;;;;;;;2.60;1.00;;;;;;;-142.25;100.00;58004.16;5038639;28;20037;-65
2023/01/14 10:36:22;;;;;;;3.08;1.35;;;;;;;-142.25;100.00;58004.16;5041894;28;20460;-66
2023/01/14 10:38:48;;;;;;;1.70;1.10;;;;;;;-142.25;100.00;58004.16;5040434;28;20044;-66
2023/01/14 10:41:15;;;;;;;1.42;1.30;;;;;;;-142.25;100.00;58004.16;5033982;28;20600;-66
2023/01/14 10:43:45;;;;;;;5.10;1.10;;;;;;;-142.25;100.00;58004.16;5030357;28;20098;-67
2023/01/14 10:46:17;;;;;;;1.30;1.20;;;;;;;-142.25;100.00;58004.16;5009886;28;20094;-66
2023/01/14 10:48:54;;;;;;;2.15;1.40;;;;;;;-142.25;100.00;58004.16;5036931;28;20044;-64
2023/01/14 10:51:32;;;;;;;1.73;1.08;;;;;;;-142.25;100.00;58004.16;5041359;28;20127;-66
2023/01/14 10:54:11;;;;;;;4.30;1.30;;;;;;;-142.25;100.00;58004.16;5037118;28;20090;-65
2023/01/14 10:56:41;;;;;;;1.38;0.88;;;;;;;-142.25;100.00;58004.16;5035188;28;20037;-64
2023/01/14 10:59:49;;;;;;;3.65;1.30;;;;;;;-142.25;100.00;58004.16;5037906;28;20123;-64
2023/01/14 11:02:37;;;;;;;2.85;1.40;;;;;;;-142.25;100.00;58004.16;5038867;28;20140;-65
2023/01/14 11:05:06;;;;;;;2.40;1.17;;;;;;;-142.25;100.00;58004.16;5034522;28;20049;-70
2023/01/14 11:07:39;;;;;;;2.70;1.48;;;;;;;-142.25;100.00;58004.16;5025149;28;20044;-68
2023/01/14 11:10:21;;;;;;;2.88;1.10;;;;;;;-142.25;100.00;58004.16;5041763;28;20048;-68
2023/01/14 11:12:47;;;;;;;2.28;0.98;;;;;;;-142.25;100.00;58004.16;5028625;28;20095;-68
2023/01/14 11:15:39;;;;;;;1.30;1.00;;;;;;;-142.25;100.00;58004.16;5038590;28;20541;-67
2023/01/14 11:18:34;;;;;;;2.67;1.35;;;;;;;-142.25;100.00;58004.16;5042917;28;20354;-68
2023/01/14 11:21:12;;;;;;;3.28;1.00;;;;;;;-142.25;100.00;58004.16;5026937;28;20049;-69
2023/01/14 11:23:40;;;;;;;2.47;1.45;;;;;;;-142.25;100.00;58004.16;5036689;28;20064;-68
2023/01/14 11:26:10;;;;;;;2.53;0.88;;;;;;;-142.25;100.00;58004.16;5044319;28;20066;-66
2023/01/14 11:28:44;;;;;;;1.90;1.05;;;;;;;-142.25;100.00;58004.16;5028782;28;20159;-68
2023/01/14 11:31:10;;;;;;;2.40;1.38;;;;;;;-142.25;100.00;58004.16;5044134;28;20120;-66
2023/01/14 11:33:49;;;;;;;4.60;1.95;;;;;;;-142.25;100.00;58004.16;5023461;28;20491;-67
2023/01/14 11:36:26;;;;;;;1.70;1.02;;;;;;;-142.25;100.00;58004.16;5042481;28;20040;-67
2023/01/14 11:38:56;;;;;;;4.07;1.10;;;;;;;-142.25;100.00;58004.16;5042289;28;20127;-66
2023/01/14 11:41:36;;;;;;;1.65;0.85;;;;;;;-142.25;100.00;58004.16;5041599;28;20036;-67
2023/01/14 11:44:16;;;;;;;3.15;0.90;;;;;;;-142.25;100.00;58004.16;5038296;28;20079;-68